Time;durP1;ratioP1;P1;durP2;ratioP2;P2;SDS_P1;SDS_P2;PMS_P1;PMS_P2;Temp;Humidity;BMP_temperature;BMP_pressure;BME280_temperature;BME280_humidity;BME280_pressure;Samples;Min_cycle;Max_cycle;Signal;HPM_P1;HPM_P2
2023/03/28 00:01:25;;;;;;;2.40;2.30;;;17.70;61.80;;;;;;5098094;27;43563;-75
2023/03/28 00:03:56;;;;;;;1.93;1.90;;;17.70;61.80;;;;;;5106532;27;43411;-78
2023/03/28 00:06:27;;;;;;;2.17;2.07;;;17.70;61.90;;;;;;5078865;27;43845;-76
2023/03/28 00:08:55;;;;;;;2.10;2.10;;;17.60;61.70;;;;;;5100243;27;43528;-74
2023/03/28 00:11:26;;;;;;;2.30;2.20;;;17.70;61.60;;;;;;5097506;27;44083;-78
2023/03/28 00:13:59;;;;;;;2.27;2.17;;;17.70;61.20;;;;;;5099142;27;43452;-75
2023/03/28 00:16:30;;;;;;;2.10;2.00;;;17.80;61.10;;;;;;5093720;27;43890;-77
2023/03/28 00:19:00;;;;;;;2.10;2.00;;;17.80;61.50;;;;;;5104812;27;43438;-77
2023/03/28 00:21:30;;;;;;;2.40;2.30;;;17.80;61.60;;;;;;5086339;27;43416;-76
2023/03/28 00:24:01;;;;;;;2.30;2.20;;;17.70;61.40;;;;;;5105707;27;43502;-76
2023/03/28 00:26:31;;;;;;;2.40;2.30;;;17.70;61.20;;;;;;5099125;27;43895;-76
2023/03/28 00:29:01;;;;;;;2.40;2.30;;;17.70;61.50;;;;;;5081231;27;44372;-78
2023/03/28 00:31:29;;;;;;;2.10;2.00;;;17.70;61.60;;;;;;5097335;27;43474;-75
2023/03/28 00:33:58;;;;;;;2.37;2.27;;;17.70;61.70;;;;;;5090605;27;43408;-75
2023/03/28 00:36:28;;;;;;;2.13;2.10;;;17.60;61.80;;;;;;5096191;27;43668;-75
2023/03/28 00:38:56;;;;;;;1.90;1.90;;;17.60;61.60;;;;;;5088760;27;43485;-76
2023/03/28 00:41:29;;;;;;;1.80;1.80;;;17.60;61.40;;;;;;5088064;27;43948;-77
2023/03/28 00:44:02;;;;;;;2.27;2.20;;;17.60;61.70;;;;;;5087788;27;43375;-77
2023/03/28 00:46:31;;;;;;;2.00;2.00;;;17.60;61.70;;;;;;5098834;27;43793;-76
2023/03/28 00:49:01;;;;;;;2.00;2.00;;;17.60;61.70;;;;;;5085499;27;44684;-75
2023/03/28 00:51:31;;;;;;;1.83;1.83;;;17.60;61.90;;;;;;5075892;27;44045;-75
2023/03/28 00:53:59;;;;;;;2.20;2.20;;;17.50;61.60;;;;;;5098128;27;43281;-76
2023/03/28 00:56:29;;;;;;;1.80;1.80;;;17.60;61.40;;;;;;5103030;27;43667;-76
2023/03/28 00:58:57;;;;;;;2.00;2.00;;;17.70;61.20;;;;;;5104696;27;43355;-78
2023/03/28 01:01:26;;;;;;;1.93;1.93;;;17.80;60.80;;;;;;5101124;27;43447;-78
2023/03/28 01:04:01;;;;;;;2.10;2.00;;;17.80;60.60;;;;;;5085696;27;43554;-76
2023/03/28 01:06:31;;;;;;;1.97;1.90;;;17.80;60.90;;;;;;5077330;27;44058;-75
2023/03/28 01:09:00;;;;;;;2.20;2.10;;;17.80;60.80;;;;;;5085196;27;43925;-77
2023/03/28 01:11:28;;;;;;;2.00;2.00;;;17.80;60.70;;;;;;5084669;27;43481;-78
2023/03/28 01:13:57;;;;;;;2.00;1.97;;;17.80;61.00;;;;;;5090635;27;44076;-77
2023/03/28 01:16:30;;;;;;;2.00;1.90;;;17.80;61.20;;;;;;5092368;27;45739;-76
2023/03/28 01:19:01;;;;;;;1.93;1.93;;;17.70;62.00;;;;;;5087663;27;43993;-76
2023/03/28 01:21:47;;;;;;;1.70;1.70;;;17.70;61.40;;;;;;5092250;27;43403;-76
2023/03/28 01:24:38;;;;;;;2.27;2.17;;;17.60;61.20;;;;;;5083469;27;43486;-77
2023/03/28 01:27:09;;;;;;;1.80;1.80;;;17.60;61.90;;;;;;5074740;27;44766;-76
2023/03/28 01:30:03;;;;;;;1.77;1.77;;;17.60;61.40;;;;;;5085129;28;43483;-76
2023/03/28 01:33:04;;;;;;;1.70;1.70;;;17.60;61.50;;;;;;5104209;27;43406;-77
2023/03/28 01:35:55;;;;;;;2.20;2.20;;;17.60;61.80;;;;;;5093803;27;43403;-76
2023/03/28 01:38:26;;;;;;;2.10;2.10;;;17.60;61.40;;;;;;5085583;27;45611;-76
2023/03/28 01:40:59;;;;;;;2.00;1.90;;;17.60;61.10;;;;;;5094318;27;45857;-75
2023/03/28 01:43:35;;;;;;;1.97;1.93;;;17.70;60.80;;;;;;5093532;27;43532;-74
2023/03/28 01:46:06;;;;;;;2.20;2.10;;;17.70;60.60;;;;;;5081256;27;43597;-75
2023/03/28 01:48:39;;;;;;;1.83;1.83;;;17.70;60.90;;;;;;5087122;27;45593;-73
2023/03/28 01:51:10;;;;;;;2.37;2.27;;;17.70;61.10;;;;;;5089816;28;44347;-76
2023/03/28 01:53:43;;;;;;;2.23;2.13;;;17.70;61.10;;;;;;5103059;27;43382;-78
2023/03/28 01:56:12;;;;;;;1.90;1.90;;;17.70;60.90;;;;;;5081880;27;43474;-76
2023/03/28 01:58:43;;;;;;;2.17;2.07;;;17.70;61.30;;;;;;5080310;27;44731;-77
2023/03/28 02:01:21;;;;;;;1.87;1.87;;;17.60;61.20;;;;;;5085701;27;44874;-76
2023/03/28 02:03:52;;;;;;;2.00;2.00;;;17.60;61.20;;;;;;5083777;27;43530;-70
2023/03/28 02:06:38;;;;;;;2.40;2.30;;;17.60;61.40;;;;;;5104586;27;43387;-77
2023/03/28 02:09:13;;;;;;;1.97;1.97;;;17.50;61.20;;;;;;5090773;27;44144;-75
2023/03/28 02:12:03;;;;;;;2.10;2.10;;;17.60;61.20;;;;;;5098776;27;43434;-76
2023/03/28 02:14:57;;;;;;;2.10;2.00;;;17.60;61.40;;;;;;5094428;27;43549;-77
2023/03/28 02:17:50;;;;;;;1.83;1.73;;;17.60;61.50;;;;;;5109916;27;43573;-77
2023/03/28 02:20:31;;;;;;;2.20;2.10;;;17.60;61.60;;;;;;5091717;27;43788;-76
2023/03/28 02:23:16;;;;;;;2.13;2.03;;;17.50;61.40;;;;;;5093219;27;43421;-76
2023/03/28 02:26:08;;;;;;;2.20;2.10;;;17.60;61.20;;;;;;5093629;27;43434;-76
2023/03/28 02:28:56;;;;;;;1.80;1.80;;;17.60;60.80;;;;;;5040492;27;43508;-77
2023/03/28 02:31:48;;;;;;;1.93;1.83;;;17.70;60.40;;;;;;5093143;27;43592;-77
2023/03/28 02:34:16;;;;;;;1.87;1.87;;;17.80;60.60;;;;;;5087965;27;44515;-76
2023/03/28 02:36:46;;;;;;;2.00;2.00;;;17.70;60.90;;;;;;5085542;27;43468;-76
2023/03/28 02:39:25;;;;;;;2.00;1.90;;;17.70;60.70;;;;;;5084372;27;43524;-77
2023/03/28 02:42:07;;;;;;;1.90;1.90;;;17.70;60.50;;;;;;5085989;27;43844;-77
2023/03/28 02:44:48;;;;;;;1.90;1.90;;;17.70;60.80;;;;;;5082269;27;44529;-78
2023/03/28 02:47:18;;;;;;;1.83;1.80;;;17.60;60.90;;;;;;5079829;27;43351;-76
2023/03/28 02:49:54;;;;;;;1.80;1.80;;;17.60;61.00;;;;;;5089482;27;43570;-76
2023/03/28 02:52:29;;;;;;;1.70;1.70;;;17.60;61.10;;;;;;5088798;27;45961;-76
2023/03/28 02:54:58;;;;;;;1.90;1.90;;;17.60;60.90;;;;;;5075094;27;44768;-77
2023/03/28 02:57:36;;;;;;;1.70;1.70;;;17.60;60.90;;;;;;5080458;28;43862;-75
2023/03/28 03:00:10;;;;;;;1.90;1.90;;;17.60;61.10;;;;;;5087389;27;43628;-77
2023/03/28 03:02:39;;;;;;;2.03;2.03;;;17.60;61.20;;;;;;5089083;27;45519;-77
2023/03/28 03:05:08;;;;;;;1.87;1.87;;;17.60;61.20;;;;;;5076783;28;45122;-77
2023/03/28 03:07:37;;;;;;;1.63;1.63;;;17.50;61.20;;;;;;5086237;27;44035;-75
2023/03/28 03:10:05;;;;;;;1.50;1.50;;;17.50;61.00;;;;;;5107165;27;43937;-74
2023/03/28 03:12:36;;;;;;;1.70;1.70;;;17.60;60.90;;;;;;5086951;27;44765;-76
2023/03/28 03:15:06;;;;;;;1.87;1.87;;;17.70;60.70;;;;;;5076620;27;43567;-75
2023/03/28 03:17:54;;;;;;;1.70;1.70;;;17.70;60.20;;;;;;5088114;27;43458;-75
2023/03/28 03:20:32;;;;;;;1.70;1.70;;;17.80;60.40;;;;;;5069460;27;43606;-76
2023/03/28 03:23:00;;;;;;;1.80;1.80;;;17.70;60.60;;;;;;5087210;27;46308;-77
2023/03/28 03:25:30;;;;;;;1.90;1.80;;;17.70;60.50;;;;;;5077998;27;43824;-75
2023/03/28 03:28:08;;;;;;;1.80;1.80;;;17.70;60.40;;;;;;5087387;27;43501;-77
2023/03/28 03:30:36;;;;;;;1.90;1.80;;;17.70;60.80;;;;;;5067659;28;43623;-77
2023/03/28 03:33:26;;;;;;;1.60;1.60;;;17.60;60.80;;;;;;5045953;27;43583;-77
2023/03/28 03:36:01;;;;;;;1.80;1.80;;;17.60;60.90;;;;;;5076693;27;44988;-77
2023/03/28 03:38:29;;;;;;;1.83;1.83;;;17.60;61.00;;;;;;5076028;27;43455;-77
2023/03/28 03:40:58;;;;;;;1.90;1.80;;;17.60;60.90;;;;;;5085889;27;44030;-76
2023/03/28 03:43:27;;;;;;;1.70;1.70;;;17.60;60.70;;;;;;5088749;27;45932;-75
2023/03/28 03:45:56;;;;;;;1.60;1.60;;;17.60;61.30;;;;;;5081047;27;43869;-76
2023/03/28 03:48:26;;;;;;;1.50;1.50;;;17.50;61.00;;;;;;5084375;27;43834;-74
2023/03/28 03:50:58;;;;;;;1.53;1.53;;;17.50;61.10;;;;;;5085512;27;43440;-76
2023/03/28 03:53:26;;;;;;;1.60;1.60;;;17.50;61.20;;;;;;5084755;27;45540;-77
2023/03/28 03:56:12;;;;;;;1.87;1.70;;;17.50;61.00;;;;;;5042784;27;43626;-77
2023/03/28 03:59:01;;;;;;;1.73;1.73;;;17.60;60.70;;;;;;5084450;27;43441;-77
2023/03/28 04:01:32;;;;;;;7.83;2.00;;;17.70;60.30;;;;;;5089946;27;43431;-75
2023/03/28 04:04:16;;;;;;;3.80;1.70;;;17.70;60.30;;;;;;5102231;27;43932;-77
2023/03/28 04:07:03;;;;;;;1.83;1.63;;;17.60;60.60;;;;;;5094712;27;43470;-77
2023/03/28 04:09:32;;;;;;;2.07;1.97;;;17.60;60.60;;;;;;5083735;27;43337;-76
2023/03/28 04:12:03;;;;;;;10.87;2.47;;;17.60;60.60;;;;;;5089302;27;43536;-77
2023/03/28 04:14:35;;;;;;;30.23;4.27;;;17.60;60.50;;;;;;5084408;27;43840;-76
2023/03/28 04:17:22;;;;;;;3.60;2.30;;;17.60;60.80;;;;;;5104317;27;43339;-75
2023/03/28 04:19:50;;;;;;;7.37;2.60;;;17.60;60.90;;;;;;5088426;27;43475;-73
2023/03/28 04:22:19;;;;;;;16.33;3.17;;;17.50;61.00;;;;;;5079492;27;43546;-77
2023/03/28 04:24:55;;;;;;;14.83;3.20;;;17.50;60.90;;;;;;5086664;27;43925;-76
2023/03/28 04:27:35;;;;;;;16.10;3.20;;;17.50;60.80;;;;;;5087549;27;44740;-77
2023/03/28 04:30:08;;;;;;;11.53;3.10;;;17.60;60.50;;;;;;5087610;27;43968;-75
2023/03/28 04:32:54;;;;;;;14.67;3.33;;;17.70;60.10;;;;;;5092547;27;43973;-76
2023/03/28 04:35:25;;;;;;;13.03;2.87;;;17.70;59.90;;;;;;5083640;27;43618;-77
2023/03/28 04:37:56;;;;;;;11.00;3.10;;;17.70;60.20;;;;;;5081668;28;45010;-77
2023/03/28 04:40:26;;;;;;;12.27;3.10;;;17.70;60.20;;;;;;5086612;27;43441;-77
2023/03/28 04:43:13;;;;;;;10.70;3.33;;;17.60;60.80;;;;;;5085010;27;43408;-77
2023/03/28 04:45:50;;;;;;;4.53;2.90;;;17.70;60.40;;;;;;5065997;27;43931;-76
2023/03/28 04:48:18;;;;;;;4.57;2.53;;;17.60;60.60;;;;;;5070243;27;44856;-76
2023/03/28 04:50:46;;;;;;;5.60;2.70;;;17.60;60.80;;;;;;5077860;27;43359;-76
2023/03/28 04:53:14;;;;;;;2.90;2.27;;;17.60;60.70;;;;;;5084923;27;43515;-77
2023/03/28 04:56:02;;;;;;;6.10;2.90;;;17.50;60.60;;;;;;5104342;27;43581;-77
2023/03/28 04:58:32;;;;;;;5.07;3.10;;;17.50;60.40;;;;;;5082050;27;43844;-74
2023/03/28 05:01:02;;;;;;;6.60;2.70;;;17.50;60.70;;;;;;5082606;27;43371;-76
2023/03/28 05:03:56;;;;;;;3.90;2.47;;;17.50;60.80;;;;;;5093855;27;44409;-78
2023/03/28 05:06:26;;;;;;;5.67;2.60;;;17.50;60.90;;;;;;5085782;27;43900;-75
2023/03/28 05:08:54;;;;;;;5.37;2.43;;;17.50;60.90;;;;;;5082465;27;44747;-76
2023/03/28 05:11:28;;;;;;;7.90;2.67;;;17.50;60.60;;;;;;5081172;27;43351;-77
2023/03/28 05:13:57;;;;;;;3.93;2.30;;;17.50;60.50;;;;;;5085808;27;44644;-77
2023/03/28 05:16:38;;;;;;;2.43;2.23;;;17.50;60.80;;;;;;5087745;27;44052;-77
2023/03/28 05:19:26;;;;;;;3.60;2.30;;;17.50;60.90;;;;;;5086231;27;43435;-77
2023/03/28 05:22:11;;;;;;;3.17;2.40;;;17.50;60.90;;;;;;5084325;27;43365;-76
2023/03/28 05:24:42;;;;;;;4.07;2.63;;;17.40;60.80;;;;;;5085587;27;43503;-76
2023/03/28 05:27:17;;;;;;;3.77;2.60;;;17.40;60.60;;;;;;5082087;28;43919;-74
2023/03/28 05:29:45;;;;;;;4.97;2.37;;;17.50;60.40;;;;;;5081226;27;44756;-75
2023/03/28 05:32:15;;;;;;;5.67;2.40;;;17.60;60.00;;;;;;5067770;27;43394;-74
2023/03/28 05:34:44;;;;;;;3.20;2.13;;;17.70;59.70;;;;;;5085449;27;43641;-77
2023/03/28 05:37:12;;;;;;;2.87;2.17;;;17.70;59.70;;;;;;5082373;28;44254;-76
2023/03/28 05:39:48;;;;;;;5.33;2.40;;;17.70;60.00;;;;;;5075397;27;44554;-76
2023/03/28 05:42:16;;;;;;;2.37;2.17;;;17.60;59.90;;;;;;5075619;27;43483;-75
2023/03/28 05:44:47;;;;;;;4.03;2.30;;;17.60;59.70;;;;;;5084108;27;44037;-74
2023/03/28 05:47:16;;;;;;;2.07;1.97;;;17.60;60.00;;;;;;5097648;27;43867;-76
2023/03/28 05:49:44;;;;;;;2.10;1.87;;;17.60;60.30;;;;;;5087376;27;45354;-77
2023/03/28 05:52:12;;;;;;;2.40;2.20;;;17.60;60.50;;;;;;5087375;27;44135;-77
2023/03/28 05:54:40;;;;;;;2.47;2.37;;;17.60;60.60;;;;;;5085886;27;43447;-77
2023/03/28 05:57:18;;;;;;;2.50;2.40;;;17.50;60.30;;;;;;5083802;27;45936;-75
2023/03/28 05:59:47;;;;;;;3.13;1.97;;;17.50;60.20;;;;;;5106626;27;43958;-76
2023/03/28 06:02:20;;;;;;;1.80;1.67;;;17.50;60.60;;;;;;5089557;27;43460;-77
2023/03/28 06:04:48;;;;;;;2.10;1.97;;;17.50;60.60;;;;;;5090303;27;43444;-77
2023/03/28 06:07:16;;;;;;;2.00;1.90;;;17.50;60.70;;;;;;5090427;27;45441;-78
2023/03/28 06:09:52;;;;;;;2.03;1.97;;;17.50;60.70;;;;;;5090099;27;44588;-77
2023/03/28 06:12:20;;;;;;;2.10;2.00;;;17.50;60.30;;;;;;5090700;27;43395;-74
2023/03/28 06:14:52;;;;;;;2.33;2.10;;;17.50;60.30;;;;;;5086724;27;43546;-77
2023/03/28 06:17:25;;;;;;;1.87;1.77;;;17.50;60.60;;;;;;5104100;27;44034;-76
2023/03/28 06:19:57;;;;;;;2.20;2.00;;;17.50;60.60;;;;;;5089890;27;44550;-78
2023/03/28 06:22:25;;;;;;;2.00;1.90;;;17.50;60.70;;;;;;5090889;27;43491;-75
2023/03/28 06:24:58;;;;;;;2.03;1.93;;;17.50;60.90;;;;;;5088317;27;43435;-74
2023/03/28 06:27:32;;;;;;;2.10;2.00;;;17.40;60.40;;;;;;5080267;27;45546;-78
2023/03/28 06:30:03;;;;;;;2.10;2.00;;;17.50;60.30;;;;;;5081957;27;45513;-77
2023/03/28 06:32:38;;;;;;;1.70;1.70;;;17.60;60.00;;;;;;5090062;27;43921;-75
2023/03/28 06:35:07;;;;;;;2.20;2.10;;;17.70;59.70;;;;;;5109112;27;43354;-77
2023/03/28 06:37:35;;;;;;;2.00;1.90;;;17.70;59.40;;;;;;5076596;27;46192;-76
2023/03/28 06:40:11;;;;;;;2.03;1.93;;;17.70;59.80;;;;;;5075424;27;43395;-76
2023/03/28 06:42:39;;;;;;;2.60;2.40;;;17.70;59.70;;;;;;5083127;27;43462;-77
2023/03/28 06:45:33;;;;;;;2.10;2.00;;;17.70;59.60;;;;;;5076809;27;43474;-77
2023/03/28 06:48:10;;;;;;;2.10;1.93;;;17.70;59.90;;;;;;5089740;27;45846;-77
2023/03/28 06:51:04;;;;;;;1.80;1.80;;;17.70;60.20;;;;;;5077062;27;43527;-76
2023/03/28 06:53:34;;;;;;;2.03;1.93;;;17.60;60.30;;;;;;5090090;27;43412;-76
2023/03/28 06:56:03;;;;;;;1.73;1.73;;;17.60;60.30;;;;;;5109027;27;43502;-76
2023/03/28 06:58:31;;;;;;;2.03;2.00;;;17.60;60.00;;;;;;5089172;27;45759;-77
2023/03/28 07:01:07;;;;;;;2.00;1.90;;;17.50;60.00;;;;;;5084446;27;44660;-75
2023/03/28 07:03:46;;;;;;;1.83;1.80;;;17.50;60.40;;;;;;5078932;27;44024;-76
2023/03/28 07:06:22;;;;;;;1.80;1.80;;;17.50;60.50;;;;;;5082239;27;43526;-76
2023/03/28 07:08:50;;;;;;;1.97;1.93;;;17.50;60.60;;;;;;5085878;27;45156;-72
2023/03/28 07:11:21;;;;;;;1.93;1.93;;;17.50;60.50;;;;;;5082465;27;43511;-77
2023/03/28 07:13:50;;;;;;;2.33;2.13;;;17.50;60.20;;;;;;5086733;27;43387;-71
2023/03/28 07:16:19;;;;;;;1.87;1.77;;;17.50;60.30;;;;;;5090454;27;43416;-78
2023/03/28 07:18:50;;;;;;;1.73;1.70;;;17.50;60.60;;;;;;5089111;27;43919;-77
2023/03/28 07:21:27;;;;;;;2.10;2.00;;;17.50;60.70;;;;;;5089337;27;43508;-75
2023/03/28 07:23:58;;;;;;;1.50;1.50;;;17.50;60.80;;;;;;5085226;27;43460;-77
2023/03/28 07:26:32;;;;;;;2.33;2.00;;;17.50;60.60;;;;;;5074936;28;43447;-77
2023/03/28 07:29:01;;;;;;;2.90;2.70;;;17.50;60.40;;;;;;5080273;27;44729;-77
2023/03/28 07:31:29;;;;;;;2.03;1.93;;;17.60;60.10;;;;;;5086761;27;43443;-77
2023/03/28 07:34:00;;;;;;;2.43;2.27;;;17.60;59.80;;;;;;5076629;27;43420;-77
2023/03/28 07:36:28;;;;;;;2.00;2.00;;;17.70;59.70;;;;;;5096120;27;43969;-75
2023/03/28 07:39:04;;;;;;;2.83;2.00;;;17.70;60.00;;;;;;5082011;27;45717;-72
2023/03/28 07:41:32;;;;;;;2.00;1.90;;;17.60;60.10;;;;;;5088801;27;43993;-77
2023/03/28 07:44:00;;;;;;;1.80;1.70;;;17.60;59.90;;;;;;5087679;27;43382;-77
2023/03/28 07:46:28;;;;;;;1.80;1.70;;;17.60;59.90;;;;;;5105037;27;43948;-77
2023/03/28 07:48:59;;;;;;;1.90;1.80;;;17.60;60.20;;;;;;5088448;27;45544;-76
2023/03/28 07:51:28;;;;;;;1.70;1.70;;;17.60;60.40;;;;;;5088465;27;43395;-75
2023/03/28 07:53:56;;;;;;;1.80;1.70;;;17.50;60.40;;;;;;5099403;27;43409;-75
2023/03/28 07:56:26;;;;;;;1.90;1.90;;;17.50;60.60;;;;;;5089188;27;43832;-75
2023/03/28 07:59:01;;;;;;;2.00;1.90;;;17.50;60.30;;;;;;5088645;27;43783;-75
2023/03/28 08:01:29;;;;;;;1.80;1.80;;;17.60;60.10;;;;;;5083279;27;44573;-76
2023/03/28 08:04:01;;;;;;;2.20;2.10;;;17.60;59.80;;;;;;5087964;27;43378;-76
2023/03/28 08:06:52;;;;;;;1.80;1.80;;;17.60;59.90;;;;;;5082246;27;44293;-72
2023/03/28 08:09:20;;;;;;;1.93;1.83;;;17.60;60.10;;;;;;5075534;27;44091;-75
2023/03/28 08:11:58;;;;;;;2.00;2.00;;;17.60;60.30;;;;;;5088261;27;43477;-75
2023/03/28 08:14:28;;;;;;;2.00;2.00;;;17.50;59.90;;;;;;5078836;27;43383;-77
2023/03/28 08:16:59;;;;;;;1.97;1.97;;;17.50;60.00;;;;;;5089020;27;43392;-75
2023/03/28 08:19:33;;;;;;;1.90;1.90;;;17.60;60.30;;;;;;5087696;27;45345;-77
2023/03/28 08:22:15;;;;;;;1.70;1.70;;;17.50;60.30;;;;;;5090842;27;43721;-77
2023/03/28 08:24:52;;;;;;;1.87;1.87;;;17.50;60.50;;;;;;5081597;27;43507;-76
2023/03/28 08:27:22;;;;;;;1.77;1.77;;;17.50;60.50;;;;;;5082238;27;44235;-76
2023/03/28 08:29:56;;;;;;;1.80;1.70;;;17.50;60.30;;;;;;5072959;27;45995;-77
2023/03/28 08:32:25;;;;;;;1.33;1.33;;;17.50;60.50;;;;;;5076752;27;43395;-76
2023/03/28 08:34:56;;;;;;;1.40;1.40;;;17.50;60.60;;;;;;5084182;27;43439;-75
2023/03/28 08:37:28;;;;;;;1.60;1.60;;;17.50;60.70;;;;;;5082744;27;43571;-75
2023/03/28 08:39:59;;;;;;;2.03;1.93;;;17.50;60.70;;;;;;5088162;27;44028;-75
2023/03/28 08:43:00;;;;;;;1.87;1.87;;;17.50;60.70;;;;;;5085337;27;43446;-77
2023/03/28 08:45:37;;;;;;;1.80;1.80;;;17.40;60.40;;;;;;5074074;27;43479;-78
2023/03/28 08:48:11;;;;;;;2.30;1.90;;;17.60;60.20;;;;;;5076600;27;43511;-76
2023/03/28 08:50:43;;;;;;;1.73;1.73;;;17.70;60.00;;;;;;5087216;27;43950;-75
2023/03/28 08:53:18;;;;;;;1.70;1.70;;;17.70;59.90;;;;;;5086000;27;44940;-76
2023/03/28 08:55:46;;;;;;;1.83;1.73;;;17.70;60.10;;;;;;5085436;27;43925;-76
2023/03/28 08:58:19;;;;;;;1.63;1.63;;;17.60;60.00;;;;;;5082998;27;43547;-76
2023/03/28 09:00:51;;;;;;;1.60;1.60;;;17.60;59.90;;;;;;5080409;27;45779;-73
2023/03/28 09:03:20;;;;;;;1.63;1.63;;;17.60;60.10;;;;;;5106454;27;43434;-76
2023/03/28 09:05:53;;;;;;;1.60;1.50;;;17.60;60.30;;;;;;5086367;27;43375;-77
2023/03/28 09:08:43;;;;;;;1.60;1.60;;;17.60;60.50;;;;;;5088264;27;43569;-74
2023/03/28 09:11:24;;;;;;;1.50;1.50;;;17.50;60.50;;;;;;5079625;27;45610;-77
2023/03/28 09:13:58;;;;;;;1.70;1.60;;;17.50;60.60;;;;;;5087154;27;44815;-75
2023/03/28 09:16:35;;;;;;;1.40;1.40;;;17.50;60.50;;;;;;5083699;27;43487;-75
2023/03/28 09:19:26;;;;;;;1.60;1.60;;;17.50;60.60;;;;;;5065165;27;44034;-75
2023/03/28 09:22:32;;;;;;;1.40;1.40;;;17.50;60.70;;;;;;5040547;27;43839;-76
2023/03/28 09:25:14;;;;;;;1.43;1.43;;;17.50;61.50;;;;;;5076114;27;44064;-76
2023/03/28 09:27:51;;;;;;;1.50;1.50;;;17.50;60.90;;;;;;5087230;27;43370;-75
2023/03/28 09:30:22;;;;;;;1.57;1.57;;;17.40;60.60;;;;;;5100067;27;43448;-74
2023/03/28 09:32:54;;;;;;;2.00;1.90;;;17.50;60.50;;;;;;5072823;28;46018;-77
2023/03/28 09:35:22;;;;;;;1.60;1.60;;;17.50;60.10;;;;;;5105566;27;43423;-77
2023/03/28 09:37:53;;;;;;;1.60;1.50;;;17.60;60.10;;;;;;5083479;27;43468;-75
2023/03/28 09:40:25;;;;;;;1.47;1.47;;;17.60;60.20;;;;;;5089300;27;43872;-76
2023/03/28 09:43:33;;;;;;;1.47;1.47;;;17.60;60.30;;;;;;5098095;27;43585;-78
2023/03/28 09:46:27;;;;;;;1.50;1.50;;;17.60;60.10;;;;;;5046688;27;43477;-75
2023/03/28 09:49:33;;;;;;;1.27;1.27;;;17.60;60.40;;;;;;5089919;27;43466;-72
2023/03/28 09:52:14;;;;;;;1.50;1.50;;;17.50;60.50;;;;;;5079145;27;43571;-74
2023/03/28 09:54:42;;;;;;;1.70;1.70;;;17.50;60.60;;;;;;5087380;27;45323;-74
2023/03/28 09:57:11;;;;;;;1.97;1.87;;;17.50;60.80;;;;;;5096380;27;43909;-74
2023/03/28 10:00:11;;;;;;;1.37;1.37;;;17.40;60.60;;;;;;5081951;27;43818;-78
2023/03/28 10:02:44;;;;;;;1.50;1.50;;;17.40;60.70;;;;;;5077429;27;43559;-77
2023/03/28 10:05:31;;;;;;;1.33;1.33;;;17.40;60.70;;;;;;5077019;27;45554;-75
2023/03/28 10:08:05;;;;;;;1.40;1.40;;;17.40;60.80;;;;;;5089792;27;44580;-75
2023/03/28 10:11:00;;;;;;;1.70;1.60;;;17.40;60.90;;;;;;5090175;27;44003;-75
2023/03/28 10:13:35;;;;;;;1.47;1.47;;;17.40;60.90;;;;;;5100083;27;44008;-76
2023/03/28 10:16:03;;;;;;;1.50;1.50;;;17.40;60.80;;;;;;5087581;27;43953;-76
2023/03/28 10:18:54;;;;;;;1.37;1.37;;;17.40;60.90;;;;;;5090502;27;43387;-76
2023/03/28 10:21:29;;;;;;;1.30;1.30;;;17.40;60.90;;;;;;5105565;27;43510;-76
2023/03/28 10:24:21;;;;;;;1.50;1.50;;;17.40;61.00;;;;;;5090414;27;43635;-72
2023/03/28 10:26:57;;;;;;;1.50;1.50;;;17.40;61.00;;;;;;5089698;27;45662;-76
2023/03/28 10:29:27;;;;;;;1.83;1.60;;;17.40;61.00;;;;;;5108022;27;43335;-75
2023/03/28 10:31:55;;;;;;;1.50;1.50;;;17.40;60.80;;;;;;5089151;27;43833;-76
2023/03/28 10:34:25;;;;;;;1.47;1.47;;;17.50;60.60;;;;;;5104977;27;43433;-78
2023/03/28 10:37:23;;;;;;;1.60;1.60;;;17.60;60.20;;;;;;5089356;27;43853;-76
2023/03/28 10:40:22;;;;;;;1.40;1.40;;;17.70;60.10;;;;;;5084659;27;44619;-75
2023/03/28 10:42:59;;;;;;;1.30;1.30;;;17.60;60.10;;;;;;5105392;27;43483;-76
2023/03/28 10:45:54;;;;;;;1.33;1.33;;;17.60;60.20;;;;;;5069666;27;43484;-76
2023/03/28 10:48:33;;;;;;;1.40;1.40;;;17.60;60.20;;;;;;5089626;27;45991;-77
2023/03/28 10:51:09;;;;;;;1.43;1.43;;;17.50;60.40;;;;;;5089033;27;44462;-75
2023/03/28 10:54:03;;;;;;;1.50;1.50;;;17.50;60.60;;;;;;5088957;27;44183;-75
2023/03/28 10:56:40;;;;;;;1.60;1.50;;;17.50;60.60;;;;;;5088656;27;43529;-77
2023/03/28 10:59:32;;;;;;;1.60;1.60;;;17.50;60.50;;;;;;5086339;27;45372;-76
2023/03/28 11:02:12;;;;;;;1.73;1.63;;;17.40;60.10;;;;;;5085567;27;43991;-76
2023/03/28 11:04:55;;;;;;;1.30;1.30;;;17.40;60.30;;;;;;5082550;27;43412;-77
2023/03/28 11:07:28;;;;;;;1.43;1.33;;;17.40;60.40;;;;;;5085802;27;43569;-75
2023/03/28 11:10:16;;;;;;;1.33;1.33;;;17.40;60.50;;;;;;5083431;27;44061;-74
2023/03/28 11:13:07;;;;;;;1.60;1.50;;;17.40;60.50;;;;;;5082317;27;44345;-77
2023/03/28 11:15:41;;;;;;;2.00;1.40;;;17.40;60.50;;;;;;5089500;27;44025;-76
2023/03/28 11:18:46;;;;;;;1.30;1.30;;;17.40;60.40;;;;;;5064100;27;43389;-77
2023/03/28 11:21:25;;;;;;;1.70;1.43;;;17.50;60.00;;;;;;5084702;27;45790;-71
2023/03/28 11:24:10;;;;;;;1.53;1.50;;;17.50;60.10;;;;;;5085175;28;43505;-75
2023/03/28 11:27:01;;;;;;;1.23;1.23;;;17.50;60.20;;;;;;5101380;27;43441;-76
2023/03/28 11:30:05;;;;;;;1.13;1.13;;;17.50;60.30;;;;;;5058241;27;44025;-75
2023/03/28 11:32:42;;;;;;;1.10;1.10;;;17.50;60.20;;;;;;5082283;27;44123;-78
2023/03/28 11:35:15;;;;;;;1.20;1.20;;;17.40;60.20;;;;;;5089125;27;43423;-77
2023/03/28 11:37:46;;;;;;;1.30;1.30;;;17.50;60.20;;;;;;5080981;27;43389;-76
2023/03/28 11:40:18;;;;;;;1.20;1.20;;;17.40;59.90;;;;;;5089822;27;43506;-76
2023/03/28 11:42:56;;;;;;;1.20;1.20;;;17.40;60.10;;;;;;5088874;27;45813;-76
2023/03/28 11:45:27;;;;;;;1.30;1.30;;;17.40;60.30;;;;;;5088896;27;43432;-77
2023/03/28 11:48:10;;;;;;;1.23;1.23;;;17.40;60.20;;;;;;5080055;27;43464;-75
2023/03/28 11:50:46;;;;;;;1.33;1.33;;;17.40;60.40;;;;;;5086193;27;43586;-76
2023/03/28 11:53:27;;;;;;;1.40;1.40;;;17.40;60.40;;;;;;5073568;27;44071;-73
2023/03/28 11:56:05;;;;;;;1.10;1.10;;;17.40;60.40;;;;;;5081458;27;45689;-77
2023/03/28 11:58:55;;;;;;;1.40;1.40;;;17.40;60.40;;;;;;5100363;27;43414;-78
2023/03/28 12:01:23;;;;;;;1.10;1.10;;;17.40;60.60;;;;;;5096971;27;43455;-75
2023/03/28 12:03:58;;;;;;;1.13;1.13;;;17.40;60.60;;;;;;5080001;27;45438;-75
2023/03/28 12:06:30;;;;;;;1.20;1.20;;;17.40;60.20;;;;;;5075210;27;44541;-77
2023/03/28 12:09:00;;;;;;;1.50;1.50;;;17.50;59.90;;;;;;5085774;27;43649;-75
2023/03/28 12:11:36;;;;;;;1.33;1.33;;;17.60;59.90;;;;;;5089163;27;43414;-77
2023/03/28 12:14:09;;;;;;;1.40;1.40;;;17.60;60.00;;;;;;5088058;27;44984;-77
2023/03/28 12:16:46;;;;;;;1.20;1.20;;;17.60;60.10;;;;;;5078501;27;44400;-77
2023/03/28 12:19:17;;;;;;;1.50;1.50;;;17.50;60.00;;;;;;5088679;27;43406;-75
2023/03/28 12:21:54;;;;;;;1.33;1.23;;;17.50;60.20;;;;;;5082737;27;43590;-76
2023/03/28 12:24:35;;;;;;;1.20;1.20;;;17.50;60.10;;;;;;5081473;27;44053;-74
2023/03/28 12:27:15;;;;;;;1.47;1.30;;;17.50;60.00;;;;;;5085806;27;43841;-75
2023/03/28 12:29:45;;;;;;;1.23;1.23;;;17.50;60.20;;;;;;5086720;27;43390;-77
2023/03/28 12:32:25;;;;;;;1.30;1.30;;;17.40;60.20;;;;;;5088510;27;44003;-75
2023/03/28 12:35:00;;;;;;;1.17;1.17;;;17.40;60.30;;;;;;5083459;27;44031;-77
2023/03/28 12:37:53;;;;;;;1.03;1.03;;;17.40;60.40;;;;;;5083792;27;44685;-76
2023/03/28 12:40:23;;;;;;;1.33;1.33;;;17.40;60.40;;;;;;5087684;27;43464;-73
2023/03/28 12:42:53;;;;;;;1.20;1.20;;;17.40;60.40;;;;;;5083540;28;44403;-77
2023/03/28 12:45:23;;;;;;;1.13;1.13;;;17.40;60.40;;;;;;5084363;27;45650;-74
2023/03/28 12:47:52;;;;;;;1.07;1.07;;;17.40;60.40;;;;;;5076639;27;44697;-77
2023/03/28 12:50:22;;;;;;;1.43;1.30;;;17.40;60.40;;;;;;5085214;27;43998;-73
2023/03/28 12:52:54;;;;;;;1.30;1.30;;;17.40;60.50;;;;;;5075701;27;43546;-78
2023/03/28 12:55:46;;;;;;;1.03;1.00;;;17.40;60.60;;;;;;5087953;27;43837;-77
2023/03/28 12:58:21;;;;;;;1.07;1.07;;;17.40;60.80;;;;;;5101990;27;43430;-76
2023/03/28 13:01:13;;;;;;;1.47;1.20;;;17.40;60.90;;;;;;5096510;27;43821;-77
2023/03/28 13:04:11;;;;;;;1.20;1.20;;;17.40;60.80;;;;;;5066168;27;43607;-74
2023/03/28 13:07:05;;;;;;;1.13;1.13;;;17.40;60.60;;;;;;5077945;27;43592;-74
2023/03/28 13:09:42;;;;;;;1.10;1.10;;;17.50;61.00;;;;;;5086724;27;45221;-76
2023/03/28 13:12:22;;;;;;;1.20;1.20;;;17.60;60.00;;;;;;5103177;27;43419;-75
2023/03/28 13:14:58;;;;;;;1.20;1.20;;;17.60;60.20;;;;;;5083240;27;43750;-72
2023/03/28 13:17:26;;;;;;;1.20;1.20;;;17.60;60.20;;;;;;5087599;27;46319;-77
2023/03/28 13:19:55;;;;;;;1.10;1.10;;;17.60;60.10;;;;;;5101507;27;43589;-76
2023/03/28 13:22:33;;;;;;;1.33;1.33;;;17.60;60.20;;;;;;5105637;27;43318;-77
2023/03/28 13:25:21;;;;;;;1.17;1.17;;;17.60;60.40;;;;;;5085631;27;43538;-76
2023/03/28 13:27:49;;;;;;;1.07;1.07;;;17.50;60.40;;;;;;5104283;27;43849;-76
2023/03/28 13:30:18;;;;;;;1.20;1.20;;;17.50;60.60;;;;;;5075139;27;44927;-78